Airport View

Enter AWOS ICAO identifier for current METAR.

ex. KFNL

KBOI 191753Z 30018G29KT 10SM CLR 22/M04 A3001 RMK AO2 PK WND 30032/1736 SLP136 T02221039 10222 20133 56005

19 Jun 2019 18:49

Phone: 208-388-4640

Other Area AWOS: KMAN - KEUL - KMUO - KONO

TAF KBOI 191720Z 1918/2018 31015G25KT P6SM SCT150 FM192000 33020G28KT P6SM SKC FM200400 31010KT P6SM SCT200 FM201600 31020G25KT P6SM SCT200